Craig Municipal Airport
KCRG : now visible

Airfield :











YOU CAN JOIN US ON...

 
LOGIN :

Register | Disclaimer

   EN    FR    IT 

 









Legend :    VFR   Marginal VFR   IFR   Intensive IFR   Very Intensive IFR
Visi :
Ceiling :
>= 8 km
>= 3000ft
5 to 8 km
1000 to 3000 ft
1500m to 5 km
500 to 1000 ft
800 to 1500m
200 to 500 ft
< 800m
< 200 ft
Symbols :   Thunderstorms  Fog  Heavy snow  Heavy precipitations  Wind > 20 kt






- Airport Elevation : 41 ft


KCRG - Craig Municipal

CURRENT METAR :
  • 291253Z 18004KT 10SM CLR 28/23 A3018 RMK AO2 SLP218 T02830233

EXPIRED METARs :
  • 291153Z 00000KT 10SM CLR 27/26 A3016 RMK AO2 SLP214 70064 T02670256 10267 20233 53011
  • 291053Z 00000KT 10SM CLR 24/22 A3015 RMK AO2 SLP210 T02390222

TAF KCRG
Valid from the 29 at 12:00 until the 30 at 12:00 UTC


291120Z 2912/3012 13006KT P6SM SCT025 BKN150 BKN250
FM291700 10011KT P6SM SCT035 BKN250
FM300100 VRB04KT P6SM SCT025 BKN150 BKN250
KZJX FIR / North America



MET'MAP, your aeronautical weather chart ! - Copyright ORBIFLY December 2007 - Disclaimer

ORBIFLY MET'MAP TEAM :

Programming & Development : Alexandra Zaïnal
Original concept : Baudouin d'Aumeries
Technical & hardware support : Manuel Goepfert
Assistance : Marc-Olivier Méhu




SOURCES & CREDITS :

   NOAA       Earth
Advisory